sensor_id;sensor_type;location;lat;lon;timestamp;P1;durP1;ratioP1;P2;durP2;ratioP2
14096;SDS011;7125;48.106;11.544;2023-08-12T00:00:29;6.05;;;5.30;;
14096;SDS011;7125;48.106;11.544;2023-08-12T00:02:56;5.93;;;5.32;;
14096;SDS011;7125;48.106;11.544;2023-08-12T00:05:24;5.07;;;4.68;;
14096;SDS011;7125;48.106;11.544;2023-08-12T00:07:51;5.63;;;5.18;;
14096;SDS011;7125;48.106;11.544;2023-08-12T00:10:18;7.13;;;5.30;;
14096;SDS011;7125;48.106;11.544;2023-08-12T00:12:45;6.75;;;5.45;;
14096;SDS011;7125;48.106;11.544;2023-08-12T00:15:13;5.25;;;4.85;;
14096;SDS011;7125;48.106;11.544;2023-08-12T00:17:40;6.97;;;5.25;;
14096;SDS011;7125;48.106;11.544;2023-08-12T00:20:08;6.47;;;5.88;;
14096;SDS011;7125;48.106;11.544;2023-08-12T00:22:36;7.28;;;4.93;;
14096;SDS011;7125;48.106;11.544;2023-08-12T00:25:03;6.28;;;5.70;;
14096;SDS011;7125;48.106;11.544;2023-08-12T00:27:31;6.47;;;5.80;;
14096;SDS011;7125;48.106;11.544;2023-08-12T00:29:59;6.07;;;5.50;;
14096;SDS011;7125;48.106;11.544;2023-08-12T00:32:27;6.22;;;5.63;;
14096;SDS011;7125;48.106;11.544;2023-08-12T00:34:54;6.65;;;6.05;;
14096;SDS011;7125;48.106;11.544;2023-08-12T00:37:21;7.30;;;6.35;;
14096;SDS011;7125;48.106;11.544;2023-08-12T00:39:49;6.38;;;5.78;;
14096;SDS011;7125;48.106;11.544;2023-08-12T00:42:16;6.30;;;5.80;;
14096;SDS011;7125;48.106;11.544;2023-08-12T00:44:43;8.88;;;6.10;;
14096;SDS011;7125;48.106;11.544;2023-08-12T00:47:10;5.25;;;4.75;;
14096;SDS011;7125;48.106;11.544;2023-08-12T00:49:38;5.82;;;5.22;;
14096;SDS011;7125;48.106;11.544;2023-08-12T00:52:10;5.63;;;5.13;;
14096;SDS011;7125;48.106;11.544;2023-08-12T00:54:37;5.95;;;5.35;;
14096;SDS011;7125;48.106;11.544;2023-08-12T00:57:04;5.20;;;4.80;;
14096;SDS011;7125;48.106;11.544;2023-08-12T00:59:34;5.68;;;5.05;;
14096;SDS011;7125;48.106;11.544;2023-08-12T01:02:02;5.20;;;4.80;;
14096;SDS011;7125;48.106;11.544;2023-08-12T01:04:29;5.47;;;4.93;;
14096;SDS011;7125;48.106;11.544;2023-08-12T01:07:00;6.32;;;5.72;;
14096;SDS011;7125;48.106;11.544;2023-08-12T01:09:28;5.72;;;5.18;;
14096;SDS011;7125;48.106;11.544;2023-08-12T01:11:57;5.13;;;4.63;;
14096;SDS011;7125;48.106;11.544;2023-08-12T01:14:28;7.18;;;4.57;;
14096;SDS011;7125;48.106;11.544;2023-08-12T01:17:04;5.60;;;5.20;;
14096;SDS011;7125;48.106;11.544;2023-08-12T01:19:34;5.38;;;4.47;;
14096;SDS011;7125;48.106;11.544;2023-08-12T01:22:06;6.05;;;5.55;;
14096;SDS011;7125;48.106;11.544;2023-08-12T01:24:37;5.45;;;4.95;;
14096;SDS011;7125;48.106;11.544;2023-08-12T01:27:04;7.72;;;4.80;;
14096;SDS011;7125;48.106;11.544;2023-08-12T01:29:32;5.47;;;5.03;;
14096;SDS011;7125;48.106;11.544;2023-08-12T01:32:02;5.53;;;5.03;;
14096;SDS011;7125;48.106;11.544;2023-08-12T01:34:38;6.15;;;5.65;;
14096;SDS011;7125;48.106;11.544;2023-08-12T01:37:14;5.93;;;5.25;;
14096;SDS011;7125;48.106;11.544;2023-08-12T01:39:49;5.65;;;5.10;;
14096;SDS011;7125;48.106;11.544;2023-08-12T01:42:18;5.95;;;5.28;;
14096;SDS011;7125;48.106;11.544;2023-08-12T01:44:46;5.93;;;5.05;;
14096;SDS011;7125;48.106;11.544;2023-08-12T01:47:14;5.22;;;4.82;;
14096;SDS011;7125;48.106;11.544;2023-08-12T01:49:41;5.30;;;4.80;;
14096;SDS011;7125;48.106;11.544;2023-08-12T01:52:08;5.63;;;5.10;;
14096;SDS011;7125;48.106;11.544;2023-08-12T01:54:35;4.93;;;4.57;;
14096;SDS011;7125;48.106;11.544;2023-08-12T01:57:03;5.95;;;5.45;;
14096;SDS011;7125;48.106;11.544;2023-08-12T01:59:33;4.90;;;4.50;;
14096;SDS011;7125;48.106;11.544;2023-08-12T02:02:00;5.20;;;4.72;;
14096;SDS011;7125;48.106;11.544;2023-08-12T02:04:27;5.03;;;4.53;;
14096;SDS011;7125;48.106;11.544;2023-08-12T02:06:54;6.10;;;5.53;;
14096;SDS011;7125;48.106;11.544;2023-08-12T02:09:21;5.40;;;4.55;;
14096;SDS011;7125;48.106;11.544;2023-08-12T02:11:48;5.13;;;4.57;;
14096;SDS011;7125;48.106;11.544;2023-08-12T02:14:17;5.78;;;5.28;;
14096;SDS011;7125;48.106;11.544;2023-08-12T02:16:44;4.95;;;4.55;;
14096;SDS011;7125;48.106;11.544;2023-08-12T02:19:11;4.78;;;4.18;;
14096;SDS011;7125;48.106;11.544;2023-08-12T02:21:38;4.55;;;4.10;;
14096;SDS011;7125;48.106;11.544;2023-08-12T02:24:05;5.05;;;4.65;;
14096;SDS011;7125;48.106;11.544;2023-08-12T02:26:33;6.32;;;4.78;;
14096;SDS011;7125;48.106;11.544;2023-08-12T02:29:00;4.85;;;4.43;;
14096;SDS011;7125;48.106;11.544;2023-08-12T02:31:28;4.53;;;4.18;;
14096;SDS011;7125;48.106;11.544;2023-08-12T02:33:55;6.15;;;5.65;;
14096;SDS011;7125;48.106;11.544;2023-08-12T02:36:23;4.40;;;4.00;;
14096;SDS011;7125;48.106;11.544;2023-08-12T02:38:54;4.38;;;4.03;;
14096;SDS011;7125;48.106;11.544;2023-08-12T02:41:21;5.32;;;4.85;;
14096;SDS011;7125;48.106;11.544;2023-08-12T02:43:48;4.57;;;4.28;;
14096;SDS011;7125;48.106;11.544;2023-08-12T02:46:15;5.22;;;4.72;;
14096;SDS011;7125;48.106;11.544;2023-08-12T02:48:44;5.50;;;4.10;;
14096;SDS011;7125;48.106;11.544;2023-08-12T02:51:12;4.43;;;4.13;;
14096;SDS011;7125;48.106;11.544;2023-08-12T02:53:39;4.70;;;4.30;;
14096;SDS011;7125;48.106;11.544;2023-08-12T02:56:06;4.32;;;3.92;;
14096;SDS011;7125;48.106;11.544;2023-08-12T02:58:33;4.68;;;4.18;;
14096;SDS011;7125;48.106;11.544;2023-08-12T03:01:00;4.82;;;4.35;;
14096;SDS011;7125;48.106;11.544;2023-08-12T03:03:29;4.82;;;4.40;;
14096;SDS011;7125;48.106;11.544;2023-08-12T03:05:57;5.68;;;4.35;;
14096;SDS011;7125;48.106;11.544;2023-08-12T03:08:24;4.07;;;3.78;;
14096;SDS011;7125;48.106;11.544;2023-08-12T03:10:57;4.57;;;4.18;;
14096;SDS011;7125;48.106;11.544;2023-08-12T03:13:25;7.03;;;4.03;;
14096;SDS011;7125;48.106;11.544;2023-08-12T03:15:52;4.47;;;4.07;;
14096;SDS011;7125;48.106;11.544;2023-08-12T03:18:19;4.88;;;4.47;;
14096;SDS011;7125;48.106;11.544;2023-08-12T03:20:46;4.35;;;4.00;;
14096;SDS011;7125;48.106;11.544;2023-08-12T03:23:15;5.45;;;4.22;;
14096;SDS011;7125;48.106;11.544;2023-08-12T03:25:42;4.18;;;3.88;;
14096;SDS011;7125;48.106;11.544;2023-08-12T03:28:09;4.78;;;3.75;;
14096;SDS011;7125;48.106;11.544;2023-08-12T03:30:37;4.30;;;3.90;;
14096;SDS011;7125;48.106;11.544;2023-08-12T03:33:05;4.65;;;4.25;;
14096;SDS011;7125;48.106;11.544;2023-08-12T03:35:32;4.45;;;3.78;;
14096;SDS011;7125;48.106;11.544;2023-08-12T03:37:59;4.18;;;3.85;;
14096;SDS011;7125;48.106;11.544;2023-08-12T03:40:28;4.40;;;4.00;;
14096;SDS011;7125;48.106;11.544;2023-08-12T03:42:57;5.07;;;3.72;;
14096;SDS011;7125;48.106;11.544;2023-08-12T03:45:24;4.38;;;3.97;;
14096;SDS011;7125;48.106;11.544;2023-08-12T03:47:52;5.22;;;3.67;;
14096;SDS011;7125;48.106;11.544;2023-08-12T03:50:19;4.43;;;4.10;;
14096;SDS011;7125;48.106;11.544;2023-08-12T03:52:46;4.50;;;3.80;;
14096;SDS011;7125;48.106;11.544;2023-08-12T03:55:12;6.22;;;3.85;;
14096;SDS011;7125;48.106;11.544;2023-08-12T03:57:42;3.88;;;3.50;;
14096;SDS011;7125;48.106;11.544;2023-08-12T04:00:09;4.18;;;3.78;;
14096;SDS011;7125;48.106;11.544;2023-08-12T04:02:42;4.00;;;3.70;;
14096;SDS011;7125;48.106;11.544;2023-08-12T04:05:09;4.53;;;4.05;;
14096;SDS011;7125;48.106;11.544;2023-08-12T04:07:37;4.07;;;3.78;;
14096;SDS011;7125;48.106;11.544;2023-08-12T04:10:06;4.13;;;3.83;;
14096;SDS011;7125;48.106;11.544;2023-08-12T04:12:33;4.00;;;3.70;;
14096;SDS011;7125;48.106;11.544;2023-08-12T04:15:05;3.88;;;3.58;;
14096;SDS011;7125;48.106;11.544;2023-08-12T04:17:33;3.72;;;3.42;;
14096;SDS011;7125;48.106;11.544;2023-08-12T04:20:03;3.83;;;3.53;;
14096;SDS011;7125;48.106;11.544;2023-08-12T04:22:32;3.40;;;3.10;;
14096;SDS011;7125;48.106;11.544;2023-08-12T04:25:00;3.97;;;3.67;;
14096;SDS011;7125;48.106;11.544;2023-08-12T04:27:28;3.50;;;3.20;;
14096;SDS011;7125;48.106;11.544;2023-08-12T04:29:55;4.22;;;3.60;;
14096;SDS011;7125;48.106;11.544;2023-08-12T04:32:24;3.72;;;3.28;;
14096;SDS011;7125;48.106;11.544;2023-08-12T04:34:51;4.15;;;3.72;;
14096;SDS011;7125;48.106;11.544;2023-08-12T04:37:19;5.38;;;3.55;;
14096;SDS011;7125;48.106;11.544;2023-08-12T04:39:46;3.78;;;3.47;;
14096;SDS011;7125;48.106;11.544;2023-08-12T04:42:13;3.65;;;3.35;;
14096;SDS011;7125;48.106;11.544;2023-08-12T04:44:40;4.03;;;3.70;;
14096;SDS011;7125;48.106;11.544;2023-08-12T04:47:07;3.72;;;2.92;;
14096;SDS011;7125;48.106;11.544;2023-08-12T04:49:37;4.97;;;3.63;;
14096;SDS011;7125;48.106;11.544;2023-08-12T04:52:04;3.38;;;3.08;;
14096;SDS011;7125;48.106;11.544;2023-08-12T04:54:35;3.33;;;3.03;;
14096;SDS011;7125;48.106;11.544;2023-08-12T04:57:02;4.25;;;3.30;;
14096;SDS011;7125;48.106;11.544;2023-08-12T04:59:29;4.25;;;3.53;;
14096;SDS011;7125;48.106;11.544;2023-08-12T05:01:56;3.80;;;3.50;;
14096;SDS011;7125;48.106;11.544;2023-08-12T05:04:23;3.92;;;3.60;;
14096;SDS011;7125;48.106;11.544;2023-08-12T05:06:51;3.70;;;3.40;;
14096;SDS011;7125;48.106;11.544;2023-08-12T05:09:18;3.83;;;3.53;;
14096;SDS011;7125;48.106;11.544;2023-08-12T05:11:47;4.05;;;3.72;;
14096;SDS011;7125;48.106;11.544;2023-08-12T05:14:14;3.90;;;3.60;;
14096;SDS011;7125;48.106;11.544;2023-08-12T05:16:42;4.53;;;3.83;;
14096;SDS011;7125;48.106;11.544;2023-08-12T05:19:09;3.97;;;3.67;;
14096;SDS011;7125;48.106;11.544;2023-08-12T05:21:36;5.90;;;4.00;;
14096;SDS011;7125;48.106;11.544;2023-08-12T05:24:05;3.38;;;3.08;;
14096;SDS011;7125;48.106;11.544;2023-08-12T05:26:33;3.45;;;3.15;;
14096;SDS011;7125;48.106;11.544;2023-08-12T05:29:00;3.78;;;3.47;;
14096;SDS011;7125;48.106;11.544;2023-08-12T05:31:27;3.70;;;3.40;;
14096;SDS011;7125;48.106;11.544;2023-08-12T05:33:54;3.88;;;3.50;;
14096;SDS011;7125;48.106;11.544;2023-08-12T05:36:21;4.95;;;4.05;;
14096;SDS011;7125;48.106;11.544;2023-08-12T05:38:48;4.68;;;3.90;;
14096;SDS011;7125;48.106;11.544;2023-08-12T05:41:17;3.63;;;3.42;;
14096;SDS011;7125;48.106;11.544;2023-08-12T05:43:44;3.72;;;3.42;;
14096;SDS011;7125;48.106;11.544;2023-08-12T05:46:11;4.40;;;3.60;;
14096;SDS011;7125;48.106;11.544;2023-08-12T05:48:38;4.38;;;3.50;;
14096;SDS011;7125;48.106;11.544;2023-08-12T05:51:05;3.97;;;3.67;;
14096;SDS011;7125;48.106;11.544;2023-08-12T05:53:32;4.85;;;3.97;;
14096;SDS011;7125;48.106;11.544;2023-08-12T05:55:59;3.38;;;3.08;;
14096;SDS011;7125;48.106;11.544;2023-08-12T05:58:27;4.47;;;4.07;;
14096;SDS011;7125;48.106;11.544;2023-08-12T06:00:54;3.78;;;3.47;;
14096;SDS011;7125;48.106;11.544;2023-08-12T06:03:21;4.32;;;3.97;;
14096;SDS011;7125;48.106;11.544;2023-08-12T06:05:48;5.05;;;3.45;;
14096;SDS011;7125;48.106;11.544;2023-08-12T06:08:15;3.60;;;3.30;;
14096;SDS011;7125;48.106;11.544;2023-08-12T06:10:42;3.35;;;3.05;;
14096;SDS011;7125;48.106;11.544;2023-08-12T06:13:09;4.00;;;3.70;;
14096;SDS011;7125;48.106;11.544;2023-08-12T06:15:39;3.78;;;3.47;;
14096;SDS011;7125;48.106;11.544;2023-08-12T06:18:06;3.80;;;3.50;;
14096;SDS011;7125;48.106;11.544;2023-08-12T06:20:35;3.92;;;3.13;;
14096;SDS011;7125;48.106;11.544;2023-08-12T06:23:02;4.60;;;4.20;;
14096;SDS011;7125;48.106;11.544;2023-08-12T06:25:29;4.13;;;3.72;;
14096;SDS011;7125;48.106;11.544;2023-08-12T06:27:56;3.85;;;3.53;;
14096;SDS011;7125;48.106;11.544;2023-08-12T06:30:23;4.55;;;3.50;;
14096;SDS011;7125;48.106;11.544;2023-08-12T06:32:52;4.22;;;3.60;;
14096;SDS011;7125;48.106;11.544;2023-08-12T06:35:18;4.28;;;3.95;;
14096;SDS011;7125;48.106;11.544;2023-08-12T06:37:45;4.22;;;3.47;;
14096;SDS011;7125;48.106;11.544;2023-08-12T06:40:12;3.58;;;3.30;;
14096;SDS011;7125;48.106;11.544;2023-08-12T06:42:39;3.38;;;3.15;;
14096;SDS011;7125;48.106;11.544;2023-08-12T06:45:06;3.80;;;3.50;;
14096;SDS011;7125;48.106;11.544;2023-08-12T06:47:34;3.90;;;3.60;;
14096;SDS011;7125;48.106;11.544;2023-08-12T06:50:04;3.25;;;3.00;;
14096;SDS011;7125;48.106;11.544;2023-08-12T06:52:32;3.53;;;3.20;;
14096;SDS011;7125;48.106;11.544;2023-08-12T06:54:59;4.63;;;3.22;;
14096;SDS011;7125;48.106;11.544;2023-08-12T06:57:27;3.65;;;3.35;;
14096;SDS011;7125;48.106;11.544;2023-08-12T06:59:54;3.45;;;3.15;;
14096;SDS011;7125;48.106;11.544;2023-08-12T07:02:21;4.00;;;3.47;;
14096;SDS011;7125;48.106;11.544;2023-08-12T07:04:48;4.57;;;3.58;;
14096;SDS011;7125;48.106;11.544;2023-08-12T07:07:16;5.10;;;3.42;;
14096;SDS011;7125;48.106;11.544;2023-08-12T07:09:44;3.78;;;3.50;;
14096;SDS011;7125;48.106;11.544;2023-08-12T07:12:11;3.58;;;3.38;;
14096;SDS011;7125;48.106;11.544;2023-08-12T07:14:38;3.80;;;3.50;;
14096;SDS011;7125;48.106;11.544;2023-08-12T07:17:05;3.60;;;3.30;;
14096;SDS011;7125;48.106;11.544;2023-08-12T07:19:33;3.60;;;3.30;;
14096;SDS011;7125;48.106;11.544;2023-08-12T07:22:00;3.47;;;3.17;;
14096;SDS011;7125;48.106;11.544;2023-08-12T07:24:28;3.28;;;2.97;;
14096;SDS011;7125;48.106;11.544;2023-08-12T07:26:55;3.15;;;2.95;;
14096;SDS011;7125;48.106;11.544;2023-08-12T07:29:22;5.15;;;2.72;;
14096;SDS011;7125;48.106;11.544;2023-08-12T07:31:48;3.45;;;3.20;;
14096;SDS011;7125;48.106;11.544;2023-08-12T07:34:15;3.53;;;3.22;;
14096;SDS011;7125;48.106;11.544;2023-08-12T07:36:42;3.58;;;3.28;;
14096;SDS011;7125;48.106;11.544;2023-08-12T07:39:09;3.30;;;3.03;;
14096;SDS011;7125;48.106;11.544;2023-08-12T07:41:37;4.60;;;3.60;;
14096;SDS011;7125;48.106;11.544;2023-08-12T07:44:04;3.70;;;3.40;;
14096;SDS011;7125;48.106;11.544;2023-08-12T07:46:31;3.40;;;3.10;;
14096;SDS011;7125;48.106;11.544;2023-08-12T07:48:58;3.67;;;3.40;;
14096;SDS011;7125;48.106;11.544;2023-08-12T07:51:25;3.97;;;3.10;;
14096;SDS011;7125;48.106;11.544;2023-08-12T07:53:54;2.88;;;2.67;;
14096;SDS011;7125;48.106;11.544;2023-08-12T07:56:20;4.13;;;2.92;;
14096;SDS011;7125;48.106;11.544;2023-08-12T07:58:49;3.13;;;2.90;;
14096;SDS011;7125;48.106;11.544;2023-08-12T08:01:16;2.92;;;2.65;;
14096;SDS011;7125;48.106;11.544;2023-08-12T08:03:42;3.70;;;3.40;;
14096;SDS011;7125;48.106;11.544;2023-08-12T08:06:09;3.58;;;3.28;;
14096;SDS011;7125;48.106;11.544;2023-08-12T08:08:36;3.00;;;2.78;;
14096;SDS011;7125;48.106;11.544;2023-08-12T08:11:03;3.83;;;3.22;;
14096;SDS011;7125;48.106;11.544;2023-08-12T08:13:30;4.43;;;2.80;;
14096;SDS011;7125;48.106;11.544;2023-08-12T08:15:58;3.03;;;2.83;;
14096;SDS011;7125;48.106;11.544;2023-08-12T08:18:25;3.58;;;3.38;;
14096;SDS011;7125;48.106;11.544;2023-08-12T08:20:52;2.92;;;2.72;;
14096;SDS011;7125;48.106;11.544;2023-08-12T08:23:19;2.95;;;2.75;;
14096;SDS011;7125;48.106;11.544;2023-08-12T08:25:46;9.50;;;3.65;;
14096;SDS011;7125;48.106;11.544;2023-08-12T08:28:13;2.70;;;2.50;;
14096;SDS011;7125;48.106;11.544;2023-08-12T08:30:40;3.10;;;2.80;;
14096;SDS011;7125;48.106;11.544;2023-08-12T08:33:08;2.80;;;2.60;;
14096;SDS011;7125;48.106;11.544;2023-08-12T08:35:35;3.50;;;3.20;;
14096;SDS011;7125;48.106;11.544;2023-08-12T08:38:02;3.00;;;2.80;;
14096;SDS011;7125;48.106;11.544;2023-08-12T08:40:29;4.90;;;3.55;;
14096;SDS011;7125;48.106;11.544;2023-08-12T08:42:56;3.50;;;3.20;;
14096;SDS011;7125;48.106;11.544;2023-08-12T08:45:31;3.45;;;3.22;;
14096;SDS011;7125;48.106;11.544;2023-08-12T08:47:59;3.72;;;3.33;;
14096;SDS011;7125;48.106;11.544;2023-08-12T08:50:29;3.15;;;2.95;;
14096;SDS011;7125;48.106;11.544;2023-08-12T08:52:56;3.10;;;2.90;;
14096;SDS011;7125;48.106;11.544;2023-08-12T08:55:24;3.15;;;2.92;;
14096;SDS011;7125;48.106;11.544;2023-08-12T08:57:51;3.08;;;2.88;;
14096;SDS011;7125;48.106;11.544;2023-08-12T09:00:19;3.30;;;3.00;;
14096;SDS011;7125;48.106;11.544;2023-08-12T09:02:46;2.60;;;2.40;;
14096;SDS011;7125;48.106;11.544;2023-08-12T09:05:14;2.97;;;2.78;;
14096;SDS011;7125;48.106;11.544;2023-08-12T09:07:42;3.47;;;3.15;;
14096;SDS011;7125;48.106;11.544;2023-08-12T09:10:10;3.30;;;3.05;;
14096;SDS011;7125;48.106;11.544;2023-08-12T09:12:37;3.38;;;3.08;;
14096;SDS011;7125;48.106;11.544;2023-08-12T09:15:05;2.92;;;2.72;;
14096;SDS011;7125;48.106;11.544;2023-08-12T09:17:33;3.70;;;3.40;;
14096;SDS011;7125;48.106;11.544;2023-08-12T09:20:00;5.90;;;3.45;;
14096;SDS011;7125;48.106;11.544;2023-08-12T09:22:28;3.53;;;3.33;;
14096;SDS011;7125;48.106;11.544;2023-08-12T09:24:57;3.95;;;3.65;;
14096;SDS011;7125;48.106;11.544;2023-08-12T09:27:24;3.00;;;2.80;;
14096;SDS011;7125;48.106;11.544;2023-08-12T09:29:55;3.95;;;3.63;;
14096;SDS011;7125;48.106;11.544;2023-08-12T09:32:22;4.03;;;3.72;;
14096;SDS011;7125;48.106;11.544;2023-08-12T09:34:50;4.28;;;3.38;;
14096;SDS011;7125;48.106;11.544;2023-08-12T09:37:18;3.55;;;3.25;;
14096;SDS011;7125;48.106;11.544;2023-08-12T09:39:46;6.95;;;3.45;;
14096;SDS011;7125;48.106;11.544;2023-08-12T09:42:16;3.20;;;2.97;;
14096;SDS011;7125;48.106;11.544;2023-08-12T09:44:43;3.10;;;2.90;;
14096;SDS011;7125;48.106;11.544;2023-08-12T09:47:11;3.22;;;3.03;;
14096;SDS011;7125;48.106;11.544;2023-08-12T09:49:38;3.40;;;3.10;;
14096;SDS011;7125;48.106;11.544;2023-08-12T09:52:06;4.10;;;3.17;;
14096;SDS011;7125;48.106;11.544;2023-08-12T09:54:34;3.22;;;2.92;;
14096;SDS011;7125;48.106;11.544;2023-08-12T09:57:02;4.47;;;3.70;;
14096;SDS011;7125;48.106;11.544;2023-08-12T09:59:35;4.03;;;3.72;;
14096;SDS011;7125;48.106;11.544;2023-08-12T10:02:05;3.75;;;3.45;;
14096;SDS011;7125;48.106;11.544;2023-08-12T10:04:35;4.28;;;3.92;;
14096;SDS011;7125;48.106;11.544;2023-08-12T10:07:06;3.65;;;3.35;;
14096;SDS011;7125;48.106;11.544;2023-08-12T10:09:35;3.75;;;3.45;;
14096;SDS011;7125;48.106;11.544;2023-08-12T10:12:03;3.55;;;3.35;;
14096;SDS011;7125;48.106;11.544;2023-08-12T10:14:31;3.60;;;3.30;;
14096;SDS011;7125;48.106;11.544;2023-08-12T10:17:01;3.58;;;3.38;;
14096;SDS011;7125;48.106;11.544;2023-08-12T10:19:28;3.22;;;2.97;;
14096;SDS011;7125;48.106;11.544;2023-08-12T10:21:59;3.95;;;3.45;;
14096;SDS011;7125;48.106;11.544;2023-08-12T10:24:27;3.00;;;2.80;;
14096;SDS011;7125;48.106;11.544;2023-08-12T10:26:54;4.15;;;3.85;;
14096;SDS011;7125;48.106;11.544;2023-08-12T10:29:22;3.58;;;3.20;;
14096;SDS011;7125;48.106;11.544;2023-08-12T10:31:50;3.78;;;3.47;;
14096;SDS011;7125;48.106;11.544;2023-08-12T10:34:19;3.78;;;3.45;;
14096;SDS011;7125;48.106;11.544;2023-08-12T10:36:47;4.68;;;3.38;;
14096;SDS011;7125;48.106;11.544;2023-08-12T10:39:14;3.83;;;3.53;;
14096;SDS011;7125;48.106;11.544;2023-08-12T10:41:49;3.85;;;3.55;;
14096;SDS011;7125;48.106;11.544;2023-08-12T10:44:17;3.58;;;3.38;;
14096;SDS011;7125;48.106;11.544;2023-08-12T10:46:49;3.25;;;3.05;;
14096;SDS011;7125;48.106;11.544;2023-08-12T10:49:18;8.30;;;3.85;;
14096;SDS011;7125;48.106;11.544;2023-08-12T10:51:48;3.28;;;3.08;;
14096;SDS011;7125;48.106;11.544;2023-08-12T10:54:17;3.50;;;3.30;;
14096;SDS011;7125;48.106;11.544;2023-08-12T10:59:48;4.10;;;3.72;;
14096;SDS011;7125;48.106;11.544;2023-08-12T11:02:19;3.45;;;3.15;;
14096;SDS011;7125;48.106;11.544;2023-08-12T11:04:55;7.15;;;3.35;;
14096;SDS011;7125;48.106;11.544;2023-08-12T11:07:27;3.50;;;3.20;;
14096;SDS011;7125;48.106;11.544;2023-08-12T11:09:59;3.78;;;3.35;;
14096;SDS011;7125;48.106;11.544;2023-08-12T11:12:30;3.50;;;2.67;;
14096;SDS011;7125;48.106;11.544;2023-08-12T11:14:59;4.30;;;3.25;;
14096;SDS011;7125;48.106;11.544;2023-08-12T11:17:28;3.63;;;3.33;;
14096;SDS011;7125;48.106;11.544;2023-08-12T11:20:00;3.97;;;2.85;;
14096;SDS011;7125;48.106;11.544;2023-08-12T11:22:29;2.80;;;2.55;;
14096;SDS011;7125;48.106;11.544;2023-08-12T11:25:00;3.28;;;2.60;;
14096;SDS011;7125;48.106;11.544;2023-08-12T11:27:27;3.75;;;3.28;;
14096;SDS011;7125;48.106;11.544;2023-08-12T11:29:54;2.25;;;2.10;;
14096;SDS011;7125;48.106;11.544;2023-08-12T11:32:21;2.85;;;2.65;;
14096;SDS011;7125;48.106;11.544;2023-08-12T11:34:48;3.70;;;3.30;;
14096;SDS011;7125;48.106;11.544;2023-08-12T11:37:16;3.42;;;3.13;;
14096;SDS011;7125;48.106;11.544;2023-08-12T11:39:43;2.40;;;2.20;;
14096;SDS011;7125;48.106;11.544;2023-08-12T11:42:10;3.50;;;3.20;;
14096;SDS011;7125;48.106;11.544;2023-08-12T11:44:39;2.95;;;2.75;;
14096;SDS011;7125;48.106;11.544;2023-08-12T11:47:07;3.25;;;2.95;;
14096;SDS011;7125;48.106;11.544;2023-08-12T11:49:34;2.95;;;2.55;;
14096;SDS011;7125;48.106;11.544;2023-08-12T11:52:00;2.97;;;2.70;;
14096;SDS011;7125;48.106;11.544;2023-08-12T11:54:30;5.60;;;3.30;;
14096;SDS011;7125;48.106;11.544;2023-08-12T11:56:57;3.55;;;3.25;;
14096;SDS011;7125;48.106;11.544;2023-08-12T11:59:25;7.05;;;2.92;;
14096;SDS011;7125;48.106;11.544;2023-08-12T12:01:52;2.95;;;2.75;;
14096;SDS011;7125;48.106;11.544;2023-08-12T12:04:21;3.03;;;2.70;;
14096;SDS011;7125;48.106;11.544;2023-08-12T12:06:48;4.07;;;3.13;;
14096;SDS011;7125;48.106;11.544;2023-08-12T12:09:15;3.55;;;3.10;;
14096;SDS011;7125;48.106;11.544;2023-08-12T12:11:44;3.20;;;3.00;;
14096;SDS011;7125;48.106;11.544;2023-08-12T12:14:11;4.20;;;3.00;;
14096;SDS011;7125;48.106;11.544;2023-08-12T12:16:39;2.80;;;2.60;;
14096;SDS011;7125;48.106;11.544;2023-08-12T12:19:12;6.32;;;3.17;;
14096;SDS011;7125;48.106;11.544;2023-08-12T12:21:42;3.28;;;3.08;;
14096;SDS011;7125;48.106;11.544;2023-08-12T12:24:11;3.05;;;2.85;;
14096;SDS011;7125;48.106;11.544;2023-08-12T12:26:38;3.08;;;2.78;;
14096;SDS011;7125;48.106;11.544;2023-08-12T12:29:07;3.10;;;2.90;;
14096;SDS011;7125;48.106;11.544;2023-08-12T12:31:36;3.15;;;2.95;;
14096;SDS011;7125;48.106;11.544;2023-08-12T12:34:04;5.70;;;3.33;;
14096;SDS011;7125;48.106;11.544;2023-08-12T12:36:32;5.75;;;3.33;;
14096;SDS011;7125;48.106;11.544;2023-08-12T12:39:01;2.97;;;2.78;;
14096;SDS011;7125;48.106;11.544;2023-08-12T12:41:28;3.50;;;3.20;;
14096;SDS011;7125;48.106;11.544;2023-08-12T12:43:55;3.40;;;2.80;;
14096;SDS011;7125;48.106;11.544;2023-08-12T12:46:24;3.88;;;3.13;;
14096;SDS011;7125;48.106;11.544;2023-08-12T12:48:51;4.68;;;2.95;;
14096;SDS011;7125;48.106;11.544;2023-08-12T12:51:18;3.58;;;3.28;;
14096;SDS011;7125;48.106;11.544;2023-08-12T12:53:45;3.40;;;3.10;;
14096;SDS011;7125;48.106;11.544;2023-08-12T12:56:12;3.42;;;3.13;;
14096;SDS011;7125;48.106;11.544;2023-08-12T12:58:39;3.50;;;3.13;;
14096;SDS011;7125;48.106;11.544;2023-08-12T13:01:05;3.58;;;3.25;;
14096;SDS011;7125;48.106;11.544;2023-08-12T13:03:34;3.47;;;3.17;;
14096;SDS011;7125;48.106;11.544;2023-08-12T13:06:00;3.85;;;3.47;;
14096;SDS011;7125;48.106;11.544;2023-08-12T13:08:28;3.25;;;3.05;;
14096;SDS011;7125;48.106;11.544;2023-08-12T13:10:56;4.15;;;3.10;;
14096;SDS011;7125;48.106;11.544;2023-08-12T13:13:23;3.28;;;2.97;;
14096;SDS011;7125;48.106;11.544;2023-08-12T13:15:52;3.45;;;3.20;;
14096;SDS011;7125;48.106;11.544;2023-08-12T13:18:19;3.22;;;3.03;;
14096;SDS011;7125;48.106;11.544;2023-08-12T13:20:47;3.53;;;3.22;;
14096;SDS011;7125;48.106;11.544;2023-08-12T13:23:14;3.08;;;2.78;;
14096;SDS011;7125;48.106;11.544;2023-08-12T13:25:41;3.60;;;2.72;;
14096;SDS011;7125;48.106;11.544;2023-08-12T13:28:08;3.63;;;3.33;;
14096;SDS011;7125;48.106;11.544;2023-08-12T13:30:35;4.45;;;2.88;;
14096;SDS011;7125;48.106;11.544;2023-08-12T13:33:02;4.60;;;2.95;;
14096;SDS011;7125;48.106;11.544;2023-08-12T13:35:30;3.55;;;3.22;;
14096;SDS011;7125;48.106;11.544;2023-08-12T13:37:58;3.58;;;3.08;;
14096;SDS011;7125;48.106;11.544;2023-08-12T13:40:25;3.30;;;3.00;;
14096;SDS011;7125;48.106;11.544;2023-08-12T13:42:52;2.88;;;2.72;;
14096;SDS011;7125;48.106;11.544;2023-08-12T13:45:19;3.50;;;3.20;;
14096;SDS011;7125;48.106;11.544;2023-08-12T13:47:47;3.75;;;3.45;;
14096;SDS011;7125;48.106;11.544;2023-08-12T13:50:14;3.97;;;3.08;;
14096;SDS011;7125;48.106;11.544;2023-08-12T13:52:41;3.40;;;2.88;;
14096;SDS011;7125;48.106;11.544;2023-08-12T13:55:09;5.70;;;2.80;;
14096;SDS011;7125;48.106;11.544;2023-08-12T13:57:36;3.42;;;3.17;;
14096;SDS011;7125;48.106;11.544;2023-08-12T14:00:03;3.10;;;2.80;;
14096;SDS011;7125;48.106;11.544;2023-08-12T14:02:37;3.95;;;3.40;;
14096;SDS011;7125;48.106;11.544;2023-08-12T14:05:04;3.60;;;2.85;;
14096;SDS011;7125;48.106;11.544;2023-08-12T14:07:32;3.60;;;3.28;;
14096;SDS011;7125;48.106;11.544;2023-08-12T14:10:02;3.30;;;3.00;;
14096;SDS011;7125;48.106;11.544;2023-08-12T14:12:31;4.93;;;3.72;;
14096;SDS011;7125;48.106;11.544;2023-08-12T14:14:58;3.88;;;3.58;;
14096;SDS011;7125;48.106;11.544;2023-08-12T14:17:25;2.90;;;2.67;;
14096;SDS011;7125;48.106;11.544;2023-08-12T14:19:56;3.60;;;3.28;;
14096;SDS011;7125;48.106;11.544;2023-08-12T14:22:24;5.53;;;3.13;;
14096;SDS011;7125;48.106;11.544;2023-08-12T14:24:51;4.60;;;3.65;;
14096;SDS011;7125;48.106;11.544;2023-08-12T14:27:18;3.50;;;3.28;;
14096;SDS011;7125;48.106;11.544;2023-08-12T14:29:49;3.28;;;3.08;;
14096;SDS011;7125;48.106;11.544;2023-08-12T14:32:16;3.67;;;3.38;;
14096;SDS011;7125;48.106;11.544;2023-08-12T14:34:44;4.20;;;3.30;;
14096;SDS011;7125;48.106;11.544;2023-08-12T14:37:11;4.95;;;3.97;;
14096;SDS011;7125;48.106;11.544;2023-08-12T14:39:39;3.88;;;3.38;;
14096;SDS011;7125;48.106;11.544;2023-08-12T14:42:06;3.65;;;3.35;;
14096;SDS011;7125;48.106;11.544;2023-08-12T14:44:35;3.55;;;3.25;;
14096;SDS011;7125;48.106;11.544;2023-08-12T14:47:03;4.35;;;2.83;;
14096;SDS011;7125;48.106;11.544;2023-08-12T14:49:30;3.53;;;3.08;;
14096;SDS011;7125;48.106;11.544;2023-08-12T14:51:58;4.07;;;3.20;;
14096;SDS011;7125;48.106;11.544;2023-08-12T14:54:25;4.18;;;3.45;;